Time;durP1;ratioP1;P1;durP2;ratioP2;P2;SDS_P1;SDS_P2;PMS_P1;PMS_P2;Temp;Humidity;BMP_temperature;BMP_pressure;BME280_temperature;BME280_humidity;BME280_pressure;Samples;Min_cycle;Max_cycle;Signal;HPM_P1;HPM_P2
2022/07/23 00:00:17;;;;;;;10.93;8.32;;;;;;;23.89;59.46;96274.94;5009433;28;20453;-77
2022/07/23 00:02:43;;;;;;;9.25;8.10;;;;;;;23.89;61.05;96261.03;5009955;28;20045;-78
2022/07/23 00:05:10;;;;;;;9.38;8.13;;;;;;;23.87;61.60;96260.66;5009462;28;20054;-78
2022/07/23 00:07:38;;;;;;;10.88;8.20;;;;;;;23.88;61.28;96251.13;5009710;28;20042;-78
2022/07/23 00:10:06;;;;;;;8.82;7.40;;;;;;;23.92;61.09;96240.75;5009301;28;20053;-78
2022/07/23 00:12:33;;;;;;;10.32;8.05;;;;;;;23.80;60.57;96238.44;5009878;28;20096;-78
2022/07/23 00:15:00;;;;;;;8.77;7.88;;;;;;;23.84;61.00;96237.22;5009693;28;20536;-79
2022/07/23 00:17:26;;;;;;;11.23;7.30;;;;;;;23.92;60.42;96235.19;5009052;28;20053;-79
2022/07/23 00:19:54;;;;;;;8.98;7.40;;;;;;;23.94;60.66;96224.44;5009722;28;20099;-79
2022/07/23 00:22:20;;;;;;;10.80;7.25;;;;;;;23.98;59.53;96224.44;5009182;28;20049;-79
2022/07/23 00:24:48;;;;;;;8.90;7.22;;;;;;;23.95;58.17;96223.25;5009341;28;20042;-79
2022/07/23 00:27:15;;;;;;;11.85;7.40;;;;;;;23.84;58.52;96228.88;5009190;28;20080;-78
2022/07/23 00:29:41;;;;;;;8.52;7.20;;;;;;;23.83;57.98;96235.66;5009760;28;20038;-79
2022/07/23 00:32:08;;;;;;;9.73;7.15;;;;;;;23.43;59.08;96245.38;5009290;28;20417;-78
2022/07/23 00:34:34;;;;;;;9.35;7.55;;;;;;;23.34;57.83;96243.06;5009191;28;20386;-77
2022/07/23 00:37:01;;;;;;;8.48;7.05;;;;;;;23.49;58.20;96240.19;5008844;28;20057;-78
2022/07/23 00:39:27;;;;;;;9.98;6.90;;;;;;;23.60;59.33;96244.50;5009236;28;20054;-79
2022/07/23 00:41:55;;;;;;;11.18;7.38;;;;;;;23.36;57.89;96250.97;5009574;28;20041;-79
2022/07/23 00:44:23;;;;;;;9.52;6.50;;;;;;;23.38;58.42;96237.47;5009029;28;20050;-79
2022/07/23 00:46:52;;;;;;;7.35;6.30;;;;;;;23.46;56.35;96243.78;5009457;28;20050;-79
2022/07/23 00:49:19;;;;;;;6.35;5.57;;;;;;;23.62;56.33;96242.09;5009259;28;20058;-78
2022/07/23 00:51:45;;;;;;;8.05;6.43;;;;;;;23.66;55.79;96231.00;5009454;28;20048;-78
2022/07/23 00:54:12;;;;;;;7.55;5.80;;;;;;;23.71;55.08;96227.78;5008762;28;20053;-78
2022/07/23 00:56:39;;;;;;;7.13;6.15;;;;;;;23.79;55.92;96231.31;5011042;28;20053;-78
2022/07/23 00:59:08;;;;;;;7.50;6.00;;;;;;;23.70;56.44;96231.78;5012356;28;20046;-79
2022/07/23 01:01:34;;;;;;;9.63;6.90;;;;;;;23.53;57.39;96222.28;5012796;28;20053;-78
2022/07/23 01:04:01;;;;;;;7.95;6.30;;;;;;;23.50;56.01;96234.25;5013024;28;20444;-80
2022/07/23 01:06:27;;;;;;;7.72;6.53;;;;;;;23.53;56.65;96241.75;5012669;28;20045;-78
2022/07/23 01:08:54;;;;;;;8.68;6.32;;;;;;;23.42;56.60;96266.81;5012637;28;20050;-78
2022/07/23 01:57:27;;;;;;;14.60;6.05;;;;;;;22.70;52.48;96425.63;5843183;23;20037;-87
2022/07/23 02:05:03;;;;;;;10.88;6.63;;;;;;;22.52;54.14;96456.94;5454526;22;20037;-81
2022/07/23 02:10:06;;;;;;;11.65;6.22;;;;;;;22.48;55.07;96436.69;5143952;22;20055;-85
2022/07/23 02:12:34;;;;;;;6.32;5.03;;;;;;;22.43;54.65;96420.44;5373622;22;20692;-87
2022/07/23 02:17:36;;;;;;;10.52;5.45;;;;;;;21.83;56.70;96409.94;5316356;22;20025;-88
2022/07/23 02:22:39;;;;;;;8.43;5.05;;;;;;;21.41;61.01;96424.38;5421300;22;20051;-75
2022/07/23 02:27:42;;;;;;;10.82;5.00;;;;;;;20.67;65.66;96425.38;5754510;22;20218;-82
2022/07/23 02:41:21;;;;;;;8.05;4.30;;;;;;;19.03;77.06;96460.00;5158016;23;20207;-74
2022/07/23 03:28:12;;;;;;;7.97;5.05;;;;;;;18.19;92.35;96389.22;5616474;22;20080;-80
2022/07/23 03:30:38;;;;;;;7.20;4.78;;;;;;;18.26;92.78;96381.06;5056926;28;20093;-87
2022/07/23 03:41:21;;;;;;;7.55;4.40;;;;;;;18.51;87.56;96387.81;5946268;23;20254;-87
2022/07/23 05:00:14;;;;;;;5.03;4.30;;;;;;;19.19;82.93;96316.31;5726050;22;20083;-83
2022/07/23 05:02:41;;;;;;;5.28;4.35;;;;;;;19.35;82.26;96325.19;5059604;28;20053;-88
2022/07/23 05:23:18;;;;;;;4.97;4.10;;;;;;;19.65;80.29;96327.16;6147987;23;20059;-83
2022/07/23 05:25:44;;;;;;;5.28;4.57;;;;;;;19.78;81.23;96326.53;5072501;28;20037;-85
2022/07/23 05:28:11;;;;;;;4.80;4.30;;;;;;;19.85;82.42;96325.81;5053420;28;20051;-84
2022/07/23 05:30:38;;;;;;;4.80;4.07;;;;;;;19.87;82.30;96323.44;5178687;22;20076;-82
2022/07/23 05:33:06;;;;;;;5.43;4.25;;;;;;;19.95;83.00;96325.13;5069733;28;20041;-85
2022/07/23 05:35:33;;;;;;;6.38;3.83;;;;;;;19.96;83.15;96321.19;5070931;28;20128;-86
2022/07/23 05:38:00;;;;;;;4.72;3.90;;;;;;;19.99;83.48;96328.72;5069442;28;20108;-83
2022/07/23 05:40:29;;;;;;;7.32;4.50;;;;;;;20.01;83.42;96329.13;5071442;28;20047;-85
2022/07/23 05:43:07;;;;;;;5.88;4.57;;;;;;;19.94;81.20;96329.06;5056505;28;20045;-84
2022/07/23 05:45:39;;;;;;;5.53;4.47;;;;;;;19.99;82.24;96337.03;5075173;28;20056;-85
2022/07/23 05:48:06;;;;;;;5.78;4.22;;;;;;;20.01;79.61;96340.19;5072725;28;20087;-84
2022/07/23 05:50:33;;;;;;;5.93;4.47;;;;;;;20.06;79.91;96342.59;5075206;28;20053;-85
2022/07/23 05:53:00;;;;;;;8.02;4.30;;;;;;;20.04;78.40;96333.88;5075544;28;20098;-85
2022/07/23 05:55:31;;;;;;;4.95;4.03;;;;;;;20.12;77.38;96331.22;5074332;28;20044;-84
2022/07/23 05:58:01;;;;;;;5.72;4.20;;;;;;;20.12;78.09;96333.97;5073761;28;20044;-85
2022/07/23 06:03:00;;;;;;;5.82;4.82;;;;;;;20.16;77.69;96346.66;5064537;28;20036;-84
2022/07/23 06:05:27;;;;;;;5.18;4.20;;;;;;;20.21;76.04;96348.28;5074398;28;20056;-84
2022/07/23 06:07:54;;;;;;;6.10;4.55;;;;;;;20.26;76.99;96356.22;5076144;28;20100;-86
2022/07/23 06:10:22;;;;;;;8.20;4.75;;;;;;;20.20;75.96;96368.78;5176926;22;20046;-86
2022/07/23 06:15:30;;;;;;;5.80;4.82;;;;;;;20.20;76.30;96363.25;5061567;28;20053;-84
2022/07/23 06:20:22;;;;;;;6.63;4.78;;;;;;;20.32;78.17;96365.75;5128229;22;20059;-84
2022/07/23 06:22:49;;;;;;;5.80;5.05;;;;;;;20.32;78.17;96371.28;5286078;22;20041;-86
2022/07/23 06:27:47;;;;;;;7.22;5.25;;;;;;;20.39;79.26;96374.13;5064332;23;20034;-85
2022/07/23 06:30:17;;;;;;;6.85;4.97;;;;;;;20.44;79.07;96375.75;5035839;28;20493;-77
2022/07/23 06:32:43;;;;;;;7.20;5.85;;;;;;;20.42;77.75;96372.56;5031176;28;20087;-78
2022/07/23 06:35:10;;;;;;;6.53;5.07;;;;;;;20.41;77.92;96368.19;5030721;28;20523;-76
2022/07/23 06:37:36;;;;;;;8.25;5.13;;;;;;;20.44;77.35;96356.38;5031221;28;20452;-76
2022/07/23 06:40:04;;;;;;;8.65;5.72;;;;;;;20.48;78.26;96358.03;5030520;28;20051;-77
2022/07/23 06:42:30;;;;;;;7.05;5.20;;;;;;;20.49;77.12;96348.56;5031090;28;20033;-76
2022/07/23 06:44:57;;;;;;;7.00;5.85;;;;;;;20.55;76.62;96355.31;5030724;28;20064;-76
2022/07/23 06:47:24;;;;;;;6.95;4.88;;;;;;;20.59;77.22;96353.38;5028105;28;20045;-76
2022/07/23 06:49:51;;;;;;;6.53;5.60;;;;;;;20.63;77.29;96356.19;5030966;28;20049;-76
2022/07/23 06:52:17;;;;;;;7.88;5.75;;;;;;;20.68;78.29;96349.50;5030238;28;20053;-77
2022/07/23 06:54:44;;;;;;;8.50;6.53;;;;;;;20.64;77.55;96348.69;5030685;28;20045;-77
2022/07/23 06:57:11;;;;;;;9.90;6.70;;;;;;;20.61;78.42;96349.44;5029915;28;20056;-76
2022/07/23 06:59:40;;;;;;;7.07;5.60;;;;;;;20.80;78.56;96346.41;5030395;28;20045;-77
2022/07/23 07:02:07;;;;;;;8.70;6.50;;;;;;;20.78;76.81;96348.78;5030017;28;20057;-76
2022/07/23 07:04:35;;;;;;;7.22;6.30;;;;;;;20.87;77.49;96340.94;5030642;28;20044;-77
2022/07/23 07:07:03;;;;;;;7.82;6.07;;;;;;;20.99;77.51;96343.41;5030700;28;20053;-79
2022/07/23 07:09:30;;;;;;;6.97;5.65;;;;;;;21.10;77.33;96335.94;5030317;28;20041;-77
2022/07/23 07:11:57;;;;;;;9.00;5.85;;;;;;;21.07;74.55;96383.78;5030542;28;20537;-76
2022/07/23 07:14:24;;;;;;;10.55;6.32;;;;;;;20.92;73.79;96409.75;5030097;28;20041;-77
2022/07/23 07:16:50;;;;;;;11.00;6.20;;;;;;;20.67;74.89;96420.63;5030014;28;20046;-76
2022/07/23 07:19:16;;;;;;;6.63;5.53;;;;;;;20.82;74.51;96411.25;5029835;28;20049;-76
2022/07/23 07:21:44;;;;;;;6.55;5.68;;;;;;;20.89;73.15;96404.22;5030292;28;20050;-77
2022/07/23 07:24:11;;;;;;;8.13;6.15;;;;;;;21.05;73.13;96410.28;5030254;28;20042;-76
2022/07/23 07:26:38;;;;;;;6.93;5.53;;;;;;;20.99;73.05;96404.31;5029968;28;20674;-75
2022/07/23 07:29:05;;;;;;;7.72;6.32;;;;;;;21.15;75.03;96406.00;5029302;28;20049;-77
2022/07/23 07:31:31;;;;;;;8.82;5.85;;;;;;;21.20;73.01;96402.84;5029426;28;20056;-77
2022/07/23 07:33:59;;;;;;;18.80;12.75;;;;;;;21.31;73.51;96409.28;5029674;28;20048;-77
2022/07/23 07:36:25;;;;;;;11.23;8.18;;;;;;;21.29;71.17;96403.28;5029687;28;20050;-77
2022/07/23 07:38:53;;;;;;;10.85;9.23;;;;;;;21.45;71.34;96395.50;5030157;28;20068;-76
2022/07/23 07:41:23;;;;;;;10.35;6.07;;;;;;;21.49;69.74;96399.09;5029273;28;20501;-77
2022/07/23 07:43:50;;;;;;;8.30;6.15;;;;;;;21.64;70.81;96405.50;5030325;28;20408;-77
2022/07/23 07:46:16;;;;;;;7.57;6.00;;;;;;;21.73;71.21;96402.38;5029699;28;20056;-79
2022/07/23 07:48:43;;;;;;;7.50;5.97;;;;;;;21.84;68.95;96405.97;5030488;28;20056;-79
2022/07/23 07:51:09;;;;;;;7.47;6.03;;;;;;;21.86;68.75;96400.81;5029785;28;20049;-79
2022/07/23 07:53:36;;;;;;;6.20;5.30;;;;;;;21.89;69.19;96406.41;5030444;28;20061;-79
2022/07/23 07:56:04;;;;;;;6.78;5.90;;;;;;;21.93;68.23;96414.75;5029842;28;20053;-79
2022/07/23 07:58:31;;;;;;;6.82;5.43;;;;;;;21.99;68.50;96415.94;5029982;28;20117;-77
2022/07/23 08:00:57;;;;;;;7.75;5.90;;;;;;;22.00;69.41;96428.63;5029723;28;20041;-75
2022/07/23 08:03:24;;;;;;;8.18;5.85;;;;;;;22.04;70.17;96432.19;5029707;28;20045;-77
2022/07/23 08:05:50;;;;;;;7.00;5.68;;;;;;;22.05;71.29;96430.22;5030344;28;20064;-77
2022/07/23 08:08:17;;;;;;;8.48;6.30;;;;;;;21.97;72.69;96429.38;5033449;28;20412;-77
2022/07/23 08:10:43;;;;;;;8.07;6.25;;;;;;;21.94;72.51;96435.72;5034102;28;20049;-77
2022/07/23 08:13:14;;;;;;;7.70;5.80;;;;;;;21.98;72.29;96455.94;5033435;28;20050;-77
2022/07/23 08:15:40;;;;;;;8.15;6.10;;;;;;;21.99;72.08;96460.31;5034215;28;20517;-77
2022/07/23 08:18:06;;;;;;;10.00;6.88;;;;;;;21.93;72.26;96461.06;5033073;28;20056;-78
2022/07/23 08:20:33;;;;;;;7.80;6.03;;;;;;;21.94;72.46;96462.66;5033814;28;20057;-77
2022/07/23 08:23:03;;;;;;;10.93;6.43;;;;;;;21.87;73.20;96453.13;5033871;28;20056;-77
2022/07/23 08:25:31;;;;;;;9.57;6.50;;;;;;;21.89;73.08;96461.03;5033604;28;20046;-76
2022/07/23 08:27:58;;;;;;;8.00;6.57;;;;;;;21.76;71.33;96468.09;5033547;28;20045;-75
2022/07/23 08:30:26;;;;;;;9.02;6.47;;;;;;;21.75;73.95;96474.81;5033160;28;20038;-77
2022/07/23 08:32:56;;;;;;;8.60;6.85;;;;;;;21.56;73.09;96468.41;5033441;28;20052;-76
2022/07/23 08:35:24;;;;;;;9.05;6.90;;;;;;;21.46;72.28;96477.44;5033025;28;20057;-78
2022/07/23 08:37:51;;;;;;;8.60;6.70;;;;;;;21.45;73.44;96470.28;5033336;28;20068;-77
2022/07/23 08:40:18;;;;;;;10.02;6.60;;;;;;;21.47;73.16;96465.19;5032771;28;20049;-78
2022/07/23 08:42:47;;;;;;;9.02;6.75;;;;;;;21.40;74.46;96456.00;5033021;28;20041;-79
2022/07/23 08:45:17;;;;;;;8.85;7.43;;;;;;;21.30;76.93;96452.00;5032803;28;20516;-78
2022/07/23 08:47:45;;;;;;;8.73;6.85;;;;;;;21.34;76.46;96463.88;5032583;28;20049;-77
2022/07/23 08:50:12;;;;;;;7.70;6.85;;;;;;;21.32;76.26;96474.56;5032490;28;20045;-78
2022/07/23 08:52:40;;;;;;;8.95;6.80;;;;;;;21.32;76.92;96469.81;5032994;28;20057;-78
2022/07/23 08:55:08;;;;;;;11.55;7.43;;;;;;;21.28;76.36;96482.03;5032371;28;20041;-78
2022/07/23 08:57:35;;;;;;;9.02;7.43;;;;;;;21.26;77.71;96487.16;5032981;28;20431;-77
2022/07/23 09:00:02;;;;;;;9.48;6.90;;;;;;;21.14;77.33;96493.78;5032333;28;20041;-77
2022/07/23 09:02:28;;;;;;;9.60;7.60;;;;;;;21.15;79.81;96483.53;5033134;28;20076;-78
2022/07/23 09:04:56;;;;;;;10.77;7.97;;;;;;;21.22;80.65;96480.78;5032668;28;20052;-77
2022/07/23 09:07:23;;;;;;;9.23;7.88;;;;;;;21.34;79.70;96488.81;5032486;28;20048;-79
2022/07/23 09:10:06;;;;;;;11.13;7.22;;;;;;;21.36;79.41;96473.41;5032716;28;20052;-78
2022/07/23 09:12:32;;;;;;;;;;;;;;;21.39;78.47;96477.38;5033073;28;20049;-77
2022/07/23 09:15:05;;;;;;;9.52;7.30;;;;;;;21.40;77.73;96481.72;5032720;28;19944;-77
2022/07/23 09:17:38;;;;;;;10.18;7.47;;;;;;;21.31;77.52;96493.16;5031671;28;20037;-78
2022/07/23 09:20:12;;;;;;;9.85;7.80;;;;;;;21.18;81.06;96502.13;5032390;28;20601;-78
2022/07/23 09:22:39;;;;;;;10.73;8.35;;;;;;;21.20;80.09;96513.63;5032641;28;20045;-78
2022/07/23 09:25:11;;;;;;;10.73;8.38;;;;;;;21.08;81.38;96523.78;5031893;28;20046;-77
2022/07/23 09:27:55;;;;;;;11.63;8.65;;;;;;;20.87;82.70;96518.06;5032448;28;20049;-78
2022/07/23 09:30:23;;;;;;;10.85;8.65;;;;;;;20.84;83.06;96525.16;5032202;28;20049;-78
2022/07/23 09:33:11;;;;;;;11.40;8.23;;;;;;;20.72;80.96;96513.56;5032417;28;20049;-79
2022/07/23 09:35:46;;;;;;;12.75;7.82;;;;;;;20.83;79.00;96514.50;5032022;28;20056;-78
2022/07/23 09:38:13;;;;;;;11.20;7.78;;;;;;;20.94;77.87;96512.63;5031813;28;20049;-77
2022/07/23 09:40:39;;;;;;;9.48;7.50;;;;;;;20.97;78.05;96506.28;5032462;28;20048;-78
2022/07/23 09:43:06;;;;;;;11.57;8.32;;;;;;;20.98;78.49;96499.56;5030825;28;20452;-79
2022/07/23 09:45:32;;;;;;;9.60;8.10;;;;;;;21.19;78.17;96512.00;5030430;28;20049;-77
2022/07/23 09:48:11;;;;;;;9.52;8.30;;;;;;;21.21;77.22;96504.13;5029922;28;20041;-77
2022/07/23 09:50:38;;;;;;;9.95;8.45;;;;;;;21.18;79.72;96521.50;5030375;28;20602;-77
2022/07/23 09:53:05;;;;;;;8.45;7.32;;;;;;;21.45;77.45;96520.16;5029855;28;20053;-77
2022/07/23 09:55:36;;;;;;;9.40;7.25;;;;;;;21.53;76.41;96519.03;5030513;28;20050;-77
2022/07/23 09:58:03;;;;;;;11.18;7.72;;;;;;;21.81;75.95;96537.03;5030386;28;20053;-76
2022/07/23 10:00:31;;;;;;;11.88;6.95;;;;;;;22.10;75.58;96533.28;5031769;28;20048;-75
2022/07/23 10:02:59;;;;;;;13.40;7.57;;;;;;;22.28;73.54;96516.69;5031872;28;20419;-76
2022/07/23 10:05:27;;;;;;;10.45;7.75;;;;;;;22.50;72.22;96512.03;5031463;28;20049;-76
2022/07/23 10:07:55;;;;;;;8.80;6.88;;;;;;;22.66;73.66;96508.91;5032113;28;20045;-76
2022/07/23 10:10:26;;;;;;;8.27;6.30;;;;;;;22.88;70.32;96507.00;5031084;28;20053;-77
2022/07/23 10:15:38;;;;;;;8.00;6.32;;;;;;;23.53;73.31;96505.00;4990664;28;20126;-76
2022/07/23 10:18:04;;;;;;;8.68;5.93;;;;;;;23.88;64.65;96498.63;5030293;28;20493;-77
2022/07/23 10:20:31;;;;;;;7.32;5.55;;;;;;;24.21;65.85;96495.31;5031348;28;20416;-77
2022/07/23 10:23:15;;;;;;;8.43;5.72;;;;;;;24.45;65.30;96488.09;5031449;28;20056;-79
2022/07/23 10:25:55;;;;;;;7.43;5.20;;;;;;;24.83;61.82;96484.69;5031259;28;20111;-76
2022/07/23 10:28:54;;;;;;;6.70;5.30;;;;;;;25.05;60.31;96479.75;5030488;28;20049;-77
2022/07/23 10:31:32;;;;;;;8.20;6.13;;;;;;;25.24;59.99;96485.59;4995167;28;20056;-77
2022/07/23 10:34:08;;;;;;;8.40;5.78;;;;;;;25.46;62.23;96482.59;5031011;28;20048;-76
2022/07/23 10:36:45;;;;;;;7.72;5.47;;;;;;;25.45;60.48;96486.59;5031204;28;20041;-76
2022/07/23 10:39:19;;;;;;;7.20;5.80;;;;;;;25.54;61.92;96477.78;5030464;28;20050;-77
2022/07/23 10:41:47;;;;;;;7.38;5.25;;;;;;;25.55;58.31;96485.72;5031059;28;20052;-76
2022/07/23 10:44:16;;;;;;;8.98;5.97;;;;;;;25.79;57.16;96474.72;5030529;28;20500;-76
2022/07/23 10:47:02;;;;;;;8.88;6.20;;;;;;;25.96;59.85;96460.59;5030873;28;20046;-77
2022/07/23 10:49:32;;;;;;;6.85;6.07;;;;;;;26.21;60.38;96465.09;5030728;28;20401;-76
2022/07/23 10:52:19;;;;;;;7.43;6.00;;;;;;;26.14;58.59;96460.38;5031217;28;20107;-75
2022/07/23 10:54:48;;;;;;;6.75;5.50;;;;;;;26.25;58.18;96452.66;5030806;28;20037;-76
2022/07/23 10:57:17;;;;;;;8.82;6.10;;;;;;;26.48;58.01;96440.03;5030171;28;20111;-75
2022/07/23 11:00:17;;;;;;;8.80;6.13;;;;;;;26.44;53.94;96450.47;5030451;28;20092;-76
2022/07/23 11:02:46;;;;;;;7.07;5.95;;;;;;;26.41;58.18;96448.47;5030604;28;20584;-76
2022/07/23 11:05:15;;;;;;;6.78;6.07;;;;;;;26.42;54.58;96447.31;5030046;28;20052;-76
2022/07/23 11:08:14;;;;;;;9.63;6.72;;;;;;;26.23;56.44;96446.72;5030720;28;20488;-77
2022/07/23 11:10:43;;;;;;;8.85;6.00;;;;;;;26.34;55.33;96438.19;5024304;28;20038;-77
2022/07/23 11:13:31;;;;;;;7.10;6.20;;;;;;;26.47;55.37;96438.47;5029881;28;20052;-77
2022/07/23 11:16:18;;;;;;;10.48;6.32;;;;;;;26.23;56.47;96441.13;5030512;28;20045;-78
2022/07/23 11:19:06;;;;;;;7.90;6.00;;;;;;;25.97;56.99;96439.88;5030115;28;20056;-77
2022/07/23 11:21:50;;;;;;;7.30;6.13;;;;;;;25.98;57.15;96438.66;5030267;28;20072;-78
2022/07/23 11:24:19;;;;;;;7.05;5.80;;;;;;;26.06;56.19;96442.16;5029660;28;20067;-78
2022/07/23 11:26:57;;;;;;;6.90;5.68;;;;;;;26.05;57.63;96435.00;5030090;28;20049;-76
2022/07/23 11:29:51;;;;;;;9.98;5.95;;;;;;;26.37;56.02;96433.78;5029680;28;20072;-77
2022/07/23 11:32:34;;;;;;;9.35;5.85;;;;;;;26.42;56.10;96416.59;5029470;28;20096;-77
2022/07/23 11:35:01;;;;;;;6.63;5.25;;;;;;;26.69;53.43;96422.97;5029985;28;20080;-78
2022/07/23 11:37:33;;;;;;;7.32;5.05;;;;;;;26.85;53.03;96424.34;5029574;28;20050;-78
2022/07/23 11:40:00;;;;;;;7.95;5.50;;;;;;;26.61;52.23;96415.91;5029633;28;20049;-77
2022/07/23 11:42:27;;;;;;;6.38;5.47;;;;;;;26.69;52.37;96414.59;5029018;28;20044;-78
2022/07/23 11:44:55;;;;;;;7.82;4.80;;;;;;;26.80;50.44;96420.81;5029738;28;20051;-78
2022/07/23 11:47:24;;;;;;;9.15;5.20;;;;;;;26.88;51.48;96420.69;5028973;28;20134;-78
2022/07/23 11:49:55;;;;;;;7.63;5.05;;;;;;;27.03;49.73;96419.22;5029915;28;20405;-76
2022/07/23 11:52:23;;;;;;;7.07;5.35;;;;;;;26.69;51.11;96417.38;5029127;28;20056;-78
2022/07/23 11:54:51;;;;;;;9.27;5.15;;;;;;;26.58;49.64;96416.75;5029656;28;20046;-77
2022/07/23 11:57:18;;;;;;;6.47;4.78;;;;;;;26.47;50.69;96402.97;5029185;28;20049;-78
2022/07/23 11:59:47;;;;;;;8.30;5.07;;;;;;;26.12;49.26;96395.84;5029619;28;20798;-78
2022/07/23 12:02:15;;;;;;;8.35;5.28;;;;;;;26.07;51.40;96398.31;5029354;28;20046;-76
2022/07/23 12:04:43;;;;;;;6.00;5.05;;;;;;;25.96;50.71;96404.03;5029674;28;20045;-77
2022/07/23 12:07:28;;;;;;;7.50;5.13;;;;;;;26.20;49.63;96402.09;5029072;28;20132;-77
2022/07/23 12:09:55;;;;;;;7.97;5.15;;;;;;;26.23;50.39;96396.47;5029517;28;20046;-76
2022/07/23 12:12:23;;;;;;;7.90;5.28;;;;;;;26.35;51.20;96402.69;5029007;28;20053;-77
2022/07/23 12:14:52;;;;;;;7.00;4.65;;;;;;;26.39;51.24;96398.66;5029554;28;20121;-76
2022/07/23 12:17:21;;;;;;;5.28;4.45;;;;;;;26.29;50.29;96397.59;5028425;28;20050;-77
2022/07/23 12:19:47;;;;;;;6.57;4.90;;;;;;;26.24;49.68;96398.06;5029475;28;20045;-76
2022/07/23 12:22:15;;;;;;;7.53;4.63;;;;;;;26.31;49.59;96399.16;5029126;28;20049;-76
2022/07/23 12:24:55;;;;;;;7.47;5.03;;;;;;;25.97;50.37;96400.00;5029607;28;20042;-77
2022/07/23 12:27:23;;;;;;;7.57;5.40;;;;;;;25.92;51.27;96401.25;5028983;28;20049;-77
2022/07/23 12:29:50;;;;;;;6.03;4.70;;;;;;;25.98;52.49;96402.38;5029530;28;20622;-77
2022/07/23 12:32:21;;;;;;;7.15;4.97;;;;;;;26.26;50.71;96400.44;5028934;28;20041;-76
2022/07/23 12:34:49;;;;;;;8.63;5.20;;;;;;;26.56;49.52;96396.81;5029403;28;20500;-77
2022/07/23 12:37:30;;;;;;;5.65;4.78;;;;;;;26.70;51.14;96395.84;5028804;28;20045;-78
2022/07/23 12:39:57;;;;;;;6.72;5.72;;;;;;;26.85;47.80;96399.19;5029238;28;20523;-78
2022/07/23 12:42:24;;;;;;;8.73;6.20;;;;;;;26.47;47.42;96399.38;5028958;28;20042;-77
2022/07/23 12:45:11;;;;;;;9.02;6.78;;;;;;;26.19;46.88;96394.94;5029412;28;20076;-77
2022/07/23 12:48:03;;;;;;;6.70;6.00;;;;;;;26.25;49.00;96399.63;5028653;28;20069;-77
2022/07/23 12:50:39;;;;;;;8.07;5.93;;;;;;;26.23;48.75;96404.84;5029216;28;20095;-77
2022/07/23 12:53:07;;;;;;;6.32;5.72;;;;;;;26.38;47.80;96407.44;5031092;28;20050;-77
2022/07/23 12:55:34;;;;;;;8.23;6.30;;;;;;;26.27;49.85;96405.59;5033311;28;20049;-77
2022/07/23 12:58:05;;;;;;;8.93;6.78;;;;;;;25.93;50.77;96404.84;5032863;28;20057;-78
2022/07/23 13:00:32;;;;;;;9.15;6.53;;;;;;;25.91;48.77;96408.06;5032507;28;20042;-78
2022/07/23 13:02:59;;;;;;;7.47;5.95;;;;;;;25.73;49.46;96401.84;5032719;28;20052;-77
2022/07/23 13:05:26;;;;;;;9.15;6.40;;;;;;;25.72;49.73;96406.66;5032445;28;20045;-76
2022/07/23 13:07:53;;;;;;;8.20;6.05;;;;;;;25.41;50.16;96402.22;5032821;28;20048;-77
2022/07/23 13:10:20;;;;;;;8.55;6.22;;;;;;;25.22;50.48;96411.97;5032069;28;20046;-76
2022/07/23 13:12:46;;;;;;;10.00;6.18;;;;;;;24.82;50.95;96400.34;5032809;28;20056;-75
2022/07/23 13:15:13;;;;;;;8.38;6.18;;;;;;;24.86;51.66;96403.09;5032228;28;20049;-77
2022/07/23 13:17:39;;;;;;;8.05;5.85;;;;;;;24.82;51.23;96400.34;5032036;28;20413;-77
2022/07/23 13:20:07;;;;;;;7.32;6.03;;;;;;;24.91;51.91;96405.44;5031716;28;20041;-76
2022/07/23 13:22:35;;;;;;;10.50;5.85;;;;;;;24.89;52.77;96405.84;5032367;28;20049;-76
2022/07/23 13:25:02;;;;;;;8.20;6.03;;;;;;;24.88;52.99;96400.69;5032155;28;20057;-77
2022/07/23 13:27:28;;;;;;;8.73;5.88;;;;;;;24.87;52.47;96401.88;5014575;28;20045;-77
2022/07/23 13:29:55;;;;;;;9.00;6.53;;;;;;;24.78;52.45;96394.00;5032227;28;20060;-76
2022/07/23 13:32:21;;;;;;;6.97;6.10;;;;;;;24.80;52.04;96411.09;5031777;28;20054;-77
2022/07/23 13:34:48;;;;;;;7.93;6.18;;;;;;;24.99;51.63;96415.31;5032075;28;20048;-77
2022/07/23 13:37:14;;;;;;;8.63;6.30;;;;;;;24.86;52.48;96412.25;5031507;28;20485;-77
2022/07/23 13:39:42;;;;;;;7.18;5.70;;;;;;;24.71;52.86;96406.00;5032221;28;20045;-75
2022/07/23 13:42:09;;;;;;;9.90;6.60;;;;;;;24.61;53.41;96412.44;5031369;28;20046;-77
2022/07/23 13:44:36;;;;;;;7.13;6.00;;;;;;;24.60;54.10;96405.28;5031668;28;20048;-76
2022/07/23 13:47:02;;;;;;;7.13;6.20;;;;;;;24.59;53.25;96409.28;5030897;28;20420;-76
2022/07/23 13:49:29;;;;;;;10.20;6.45;;;;;;;24.62;53.31;96416.78;5032010;28;20409;-76
2022/07/23 13:51:57;;;;;;;7.95;6.60;;;;;;;24.61;53.33;96412.44;5031809;28;20056;-76
2022/07/23 13:54:23;;;;;;;9.13;6.65;;;;;;;24.52;53.93;96408.50;5031311;28;20536;-76
2022/07/23 13:56:51;;;;;;;7.38;6.40;;;;;;;24.49;53.85;96404.56;5031761;28;20037;-76
2022/07/23 13:59:18;;;;;;;8.63;6.35;;;;;;;24.50;54.30;96394.22;5030967;28;20042;-76
2022/07/23 14:01:44;;;;;;;9.52;6.05;;;;;;;24.59;53.85;96402.88;5031551;28;20559;-76
2022/07/23 14:04:11;;;;;;;9.43;6.45;;;;;;;24.38;54.06;96398.25;5030227;28;20072;-76
2022/07/23 14:06:37;;;;;;;9.13;6.70;;;;;;;24.41;54.57;96401.03;5031449;28;20041;-76
2022/07/23 14:09:04;;;;;;;9.27;6.18;;;;;;;24.54;55.16;96401.34;5031086;28;20041;-77
2022/07/23 14:11:31;;;;;;;9.15;6.57;;;;;;;24.46;55.71;96400.59;5031627;28;20049;-75
2022/07/23 14:14:00;;;;;;;8.98;6.55;;;;;;;24.62;54.97;96402.88;5031395;28;20405;-76
2022/07/23 14:16:27;;;;;;;11.00;6.68;;;;;;;24.66;54.37;96409.22;5030507;28;20048;-77
2022/07/23 14:18:54;;;;;;;9.80;6.30;;;;;;;24.84;55.04;96402.69;5031604;28;20050;-78
2022/07/23 14:21:20;;;;;;;9.10;6.75;;;;;;;25.01;55.25;96401.78;5030830;28;20056;-76
2022/07/23 14:23:47;;;;;;;7.53;6.38;;;;;;;24.89;53.67;96402.25;5031329;28;20041;-76
2022/07/23 14:26:13;;;;;;;6.90;6.05;;;;;;;25.00;55.17;96405.75;5030596;28;20045;-76
2022/07/23 14:28:40;;;;;;;7.90;6.47;;;;;;;25.06;54.82;96400.53;5030890;28;20408;-76
2022/07/23 14:31:08;;;;;;;8.02;6.57;;;;;;;24.95;54.75;96401.44;5030691;28;20068;-75
2022/07/23 14:33:34;;;;;;;10.00;6.30;;;;;;;24.80;54.32;96396.41;5031228;28;20049;-76
2022/07/23 14:36:01;;;;;;;8.48;6.28;;;;;;;24.62;54.72;96394.50;5031041;28;20045;-76
2022/07/23 14:38:30;;;;;;;8.20;6.43;;;;;;;24.40;55.06;96385.53;5030829;28;20052;-77
2022/07/23 14:40:56;;;;;;;8.57;6.28;;;;;;;24.42;56.44;96387.91;5013643;28;20053;-77
2022/07/23 14:43:23;;;;;;;9.00;6.88;;;;;;;24.43;56.21;96383.91;5030305;28;20049;-76
2022/07/23 14:45:49;;;;;;;8.43;6.85;;;;;;;24.34;56.02;96386.34;5030832;28;20045;-77
2022/07/23 14:48:17;;;;;;;9.68;6.78;;;;;;;24.34;55.88;96376.00;5029670;28;20053;-77
2022/07/23 14:50:44;;;;;;;8.55;7.00;;;;;;;24.23;56.26;96374.50;5030843;28;20042;-76
2022/07/23 14:53:10;;;;;;;9.85;7.20;;;;;;;24.13;56.82;96371.34;5030094;28;20041;-76
2022/07/23 14:55:37;;;;;;;9.23;6.72;;;;;;;24.13;57.59;96370.56;5030589;28;20046;-77
2022/07/23 14:58:03;;;;;;;10.15;7.18;;;;;;;24.19;58.10;96375.28;5029947;28;20516;-76
2022/07/23 15:00:30;;;;;;;8.38;6.63;;;;;;;24.40;58.13;96368.03;5030447;28;20055;-76
2022/07/23 15:02:56;;;;;;;9.45;6.82;;;;;;;24.24;57.35;96365.72;5030470;28;20484;-76
2022/07/23 15:05:24;;;;;;;9.95;7.10;;;;;;;24.15;57.63;96363.38;5030055;28;20576;-76
2022/07/23 15:07:51;;;;;;;10.85;6.63;;;;;;;24.34;58.50;96376.00;5030484;28;20049;-78
2022/07/23 15:10:17;;;;;;;9.13;6.45;;;;;;;24.40;57.61;96384.75;5029712;28;20041;-76
2022/07/23 15:12:44;;;;;;;8.15;7.07;;;;;;;24.38;57.40;96381.56;5030344;28;20534;-77
2022/07/23 15:15:10;;;;;;;7.63;6.82;;;;;;;24.41;57.65;96386.31;5029413;28;20041;-77
2022/07/23 15:17:37;;;;;;;11.52;7.22;;;;;;;24.42;58.46;96387.91;5029963;28;20049;-75
2022/07/23 15:20:04;;;;;;;8.45;7.10;;;;;;;24.48;57.70;96380.69;5029807;28;20573;-76
2022/07/23 15:22:32;;;;;;;8.07;6.78;;;;;;;24.57;58.25;96383.81;5029934;28;20077;-76
2022/07/23 15:24:59;;;;;;;12.48;7.90;;;;;;;24.64;60.04;96382.97;5030025;28;20041;-75
2022/07/23 15:27:25;;;;;;;8.60;6.68;;;;;;;24.71;58.84;96374.56;5029104;28;20048;-77
2022/07/23 15:29:52;;;;;;;10.80;6.63;;;;;;;24.79;58.88;96383.66;5029907;28;20038;-77
2022/07/23 15:32:18;;;;;;;9.32;7.50;;;;;;;24.80;57.50;96390.81;5029331;28;20050;-77